Time;durP1;ratioP1;P1;durP2;ratioP2;P2;SDS_P1;SDS_P2;PMS_P1;PMS_P2;Temp;Humidity;BMP_temperature;BMP_pressure;BME280_temperature;BME280_humidity;BME280_pressure;Samples;Min_cycle;Max_cycle;Signal;HPM_P1;HPM_P2
2021/07/22 00:00:59;;;;;;;16.48;8.10;;;;;;;16.90;100.00;102285.84;3604371;39;20038;-60
2021/07/22 00:03:25;;;;;;;15.73;9.10;;;;;;;16.85;100.00;102289.97;3604875;39;20040;-60
2021/07/22 00:05:51;;;;;;;13.88;9.15;;;;;;;16.88;100.00;102286.97;3602580;39;20040;-60
2021/07/22 00:08:19;;;;;;;16.20;10.02;;;;;;;16.84;100.00;102288.22;3602210;39;20054;-62
2021/07/22 00:10:46;;;;;;;17.30;10.40;;;;;;;16.79;100.00;102292.22;3602634;39;20040;-60
2021/07/22 00:13:12;;;;;;;16.98;11.38;;;;;;;16.87;100.00;102286.13;3602914;39;20051;-62
2021/07/22 00:15:38;;;;;;;19.75;10.38;;;;;;;16.81;100.00;102279.38;3603010;39;20036;-60
2021/07/22 00:18:05;;;;;;;15.30;10.45;;;;;;;16.79;100.00;102283.22;3603070;39;20379;-60
2021/07/22 00:20:31;;;;;;;17.63;10.85;;;;;;;16.81;100.00;102273.94;3602430;39;20032;-62
2021/07/22 00:22:58;;;;;;;17.92;10.77;;;;;;;16.78;100.00;102278.78;3601274;39;20113;-60
2021/07/22 00:25:25;;;;;;;16.10;10.27;;;;;;;16.76;100.00;102275.34;3603343;39;20441;-62
2021/07/22 00:27:52;;;;;;;18.50;11.82;;;;;;;16.75;100.00;102274.47;3602969;39;20039;-60
2021/07/22 00:30:18;;;;;;;19.30;12.18;;;;;;;16.81;100.00;102278.50;3600278;39;20063;-63
2021/07/22 00:32:45;;;;;;;20.38;11.25;;;;;;;16.85;100.00;102271.78;3600010;39;20046;-60
2021/07/22 00:35:12;;;;;;;19.58;12.40;;;;;;;16.94;100.00;102273.66;3601543;39;20049;-61
2021/07/22 00:37:38;;;;;;;18.02;11.35;;;;;;;16.99;100.00;102278.69;3603161;39;20043;-60
2021/07/22 00:40:06;;;;;;;18.63;11.70;;;;;;;16.99;100.00;102279.53;3601013;39;20042;-60
2021/07/22 00:42:58;;;;;;;16.33;11.05;;;;;;;16.86;100.00;102275.34;3604416;39;20036;-60
2021/07/22 00:45:27;;;;;;;21.98;12.68;;;;;;;16.82;100.00;102275.63;3604131;39;20024;-60
2021/07/22 00:47:53;;;;;;;17.83;12.00;;;;;;;16.74;100.00;102282.78;3602077;39;20285;-61
2021/07/22 00:50:20;;;;;;;21.30;12.20;;;;;;;16.76;100.00;102276.19;3603869;39;20305;-60
2021/07/22 00:52:46;;;;;;;21.77;12.90;;;;;;;16.60;100.00;102278.63;3603096;39;21324;-61
2021/07/22 00:55:14;;;;;;;19.10;12.45;;;;;;;16.61;100.00;102274.91;3601147;39;20036;-60
2021/07/22 00:57:40;;;;;;;18.88;12.90;;;;;;;16.61;100.00;102272.19;3598948;39;20327;-60
2021/07/22 01:00:10;;;;;;;24.73;13.57;;;;;;;16.53;100.00;102274.75;3600028;39;20044;-60
2021/07/22 01:02:36;;;;;;;18.70;12.57;;;;;;;16.53;100.00;102274.75;3604827;39;20040;-60
2021/07/22 01:05:03;;;;;;;18.65;12.55;;;;;;;16.44;100.00;102276.44;3604854;39;20038;-61
2021/07/22 01:07:29;;;;;;;25.45;13.65;;;;;;;16.34;100.00;102275.56;3600701;39;20064;-60
2021/07/22 01:09:56;;;;;;;21.15;13.02;;;;;;;16.43;100.00;102272.88;3586782;40;20373;-60
2021/07/22 01:12:23;;;;;;;21.65;12.75;;;;;;;16.45;100.00;102270.88;3587976;40;20082;-60
2021/07/22 01:14:49;;;;;;;21.45;14.07;;;;;;;16.50;100.00;102269.59;3591154;40;20117;-61
2021/07/22 01:17:28;;;;;;;21.30;13.68;;;;;;;16.53;100.00;102272.88;3589501;39;20028;-60
2021/07/22 01:19:54;;;;;;;19.50;14.20;;;;;;;16.52;100.00;102278.47;3591404;40;20044;-61
2021/07/22 01:22:22;;;;;;;23.58;13.60;;;;;;;16.57;100.00;102277.03;3588472;39;20359;-61
2021/07/22 01:24:48;;;;;;;21.50;13.60;;;;;;;16.63;100.00;102272.91;3592676;39;20085;-60
2021/07/22 01:27:14;;;;;;;18.77;12.55;;;;;;;16.70;100.00;102275.94;3593662;40;20036;-61
2021/07/22 01:29:41;;;;;;;21.65;14.15;;;;;;;16.84;100.00;102272.75;3595370;40;20364;-60
2021/07/22 01:32:08;;;;;;;18.70;12.10;;;;;;;16.97;100.00;102273.41;3640815;22;20071;-60
2021/07/22 01:34:34;;;;;;;19.50;12.45;;;;;;;17.04;100.00;102264.66;3606944;39;20336;-59
2021/07/22 01:37:00;;;;;;;21.17;13.57;;;;;;;17.05;100.00;102272.66;3606259;39;20040;-60
2021/07/22 01:39:30;;;;;;;23.40;14.18;;;;;;;17.07;100.00;102269.81;3606761;39;20039;-61
2021/07/22 01:41:56;;;;;;;21.55;12.82;;;;;;;17.17;100.00;102263.34;3604350;39;20038;-59
2021/07/22 01:44:23;;;;;;;19.10;12.52;;;;;;;17.31;100.00;102272.94;3605465;39;20068;-60
2021/07/22 01:46:49;;;;;;;20.75;13.02;;;;;;;17.25;100.00;102273.50;3605295;39;20044;-60
2021/07/22 01:49:15;;;;;;;20.30;12.50;;;;;;;17.21;100.00;102274.81;3606570;39;20044;-62
2021/07/22 01:51:42;;;;;;;23.70;14.30;;;;;;;17.14;100.00;102271.78;3604597;39;20120;-60
2021/07/22 01:54:08;;;;;;;25.75;13.80;;;;;;;17.15;100.00;102265.34;3604118;39;20058;-60
2021/07/22 01:56:36;;;;;;;22.20;12.57;;;;;;;17.07;100.00;102272.53;3606691;39;20038;-60
2021/07/22 01:59:02;;;;;;;22.05;14.00;;;;;;;17.03;100.00;102268.38;3603654;39;20390;-60
2021/07/22 02:01:29;;;;;;;21.92;14.48;;;;;;;16.95;100.00;102269.94;3604406;39;20046;-60
2021/07/22 02:03:55;;;;;;;25.67;15.55;;;;;;;16.88;100.00;102273.38;3607174;39;20055;-61
2021/07/22 02:06:22;;;;;;;23.05;15.00;;;;;;;16.78;100.00;102276.94;3605860;39;22410;-60
2021/07/22 02:08:48;;;;;;;22.67;16.08;;;;;;;16.77;100.00;102283.38;3605558;39;20051;-60
2021/07/22 02:11:15;;;;;;;26.70;15.75;;;;;;;16.79;100.00;102275.91;3607133;39;20061;-61
2021/07/22 02:13:43;;;;;;;24.20;14.75;;;;;;;16.74;100.00;102271.91;3604392;39;20050;-61
2021/07/22 02:16:09;;;;;;;22.95;14.88;;;;;;;16.70;100.00;102270.50;3607039;39;20024;-60
2021/07/22 02:18:36;;;;;;;24.02;16.27;;;;;;;16.64;100.00;102266.47;3606261;39;20337;-62
2021/07/22 02:21:05;;;;;;;25.08;15.50;;;;;;;16.63;100.00;102265.59;3607489;39;20032;-60
2021/07/22 02:23:31;;;;;;;;;;;;;;;16.65;100.00;102262.75;3608060;39;20020;-61
2021/07/22 02:25:58;;;;;;;21.90;14.43;;;;;;;16.57;100.00;102266.16;3607444;39;19940;-61
2021/07/22 02:28:24;;;;;;;25.48;15.48;;;;;;;16.43;100.00;102266.56;3606855;39;20391;-61
2021/07/22 02:30:52;;;;;;;28.13;15.30;;;;;;;16.54;100.00;102265.59;3603910;39;20412;-61
2021/07/22 02:33:18;;;;;;;24.73;15.23;;;;;;;16.45;100.00;102272.75;3664453;22;20056;-62
2021/07/22 02:35:45;;;;;;;27.25;15.52;;;;;;;16.43;100.00;102270.16;3608792;39;20032;-61
2021/07/22 02:38:11;;;;;;;22.42;16.25;;;;;;;16.40;100.00;102269.56;3607888;39;20413;-60
2021/07/22 02:40:37;;;;;;;25.52;16.02;;;;;;;16.34;100.00;102265.59;3608956;39;20107;-61
2021/07/22 02:43:04;;;;;;;20.65;14.73;;;;;;;16.37;100.00;102269.84;3605646;39;20034;-60
2021/07/22 02:45:30;;;;;;;24.80;14.88;;;;;;;16.31;100.00;102268.53;3606694;39;20283;-60
2021/07/22 02:47:58;;;;;;;24.15;15.02;;;;;;;16.32;100.00;102278.44;3606658;39;20024;-60
2021/07/22 02:50:25;;;;;;;23.00;15.60;;;;;;;16.18;100.00;102271.53;3607490;39;20063;-62
2021/07/22 02:52:51;;;;;;;23.08;15.13;;;;;;;16.18;100.00;102270.66;3608728;39;20115;-61
2021/07/22 02:55:18;;;;;;;22.65;14.40;;;;;;;16.19;100.00;102272.38;3608826;39;20049;-60
2021/07/22 02:57:44;;;;;;;21.17;14.30;;;;;;;16.13;100.00;102286.53;3607712;39;20067;-62
2021/07/22 03:00:12;;;;;;;22.25;15.10;;;;;;;16.23;100.00;102282.84;3607788;39;20305;-60
2021/07/22 03:02:38;;;;;;;24.08;14.93;;;;;;;16.18;100.00;102276.97;3607724;39;20043;-60
2021/07/22 03:05:07;;;;;;;21.25;13.93;;;;;;;16.09;100.00;102273.22;3607203;39;20040;-62
2021/07/22 03:07:34;;;;;;;22.23;14.38;;;;;;;16.08;100.00;102286.94;3607416;39;20038;-60
2021/07/22 03:10:01;;;;;;;24.42;15.77;;;;;;;15.99;100.00;102283.19;3608581;39;20137;-60
2021/07/22 03:12:27;;;;;;;22.13;14.48;;;;;;;15.97;100.00;102287.88;3607902;39;20064;-60
2021/07/22 03:14:54;;;;;;;22.80;13.75;;;;;;;15.89;100.00;102283.16;3605953;39;20096;-60
2021/07/22 03:17:20;;;;;;;24.95;15.15;;;;;;;15.92;100.00;102277.44;3607259;39;20398;-61
2021/07/22 03:19:47;;;;;;;24.77;15.93;;;;;;;15.82;100.00;102281.97;3606657;39;20028;-60
2021/07/22 03:22:15;;;;;;;23.65;16.08;;;;;;;15.89;100.00;102285.84;3606277;39;20390;-59
2021/07/22 03:24:42;;;;;;;23.73;15.45;;;;;;;15.97;100.00;102279.75;3608959;39;20044;-62
2021/07/22 03:27:08;;;;;;;24.98;15.80;;;;;;;16.09;100.00;102278.66;3608847;39;20127;-61
2021/07/22 03:29:35;;;;;;;24.75;16.92;;;;;;;16.05;100.00;102281.78;3607698;39;20055;-61
2021/07/22 03:32:01;;;;;;;26.90;16.90;;;;;;;15.96;100.00;102282.59;3605878;39;20036;-61
2021/07/22 03:34:28;;;;;;;28.23;17.67;;;;;;;16.00;100.00;102276.75;3604999;39;20040;-61
2021/07/22 03:36:54;;;;;;;26.98;17.20;;;;;;;16.03;100.00;102273.78;3604885;39;20124;-61
2021/07/22 03:39:22;;;;;;;29.10;17.80;;;;;;;15.99;100.00;102282.31;3601358;39;20036;-60
2021/07/22 03:41:48;;;;;;;30.80;18.67;;;;;;;15.98;100.00;102281.47;3605644;39;20028;-61
2021/07/22 03:44:15;;;;;;;27.77;18.33;;;;;;;15.97;100.00;102274.31;3604324;39;20040;-60
2021/07/22 03:46:42;;;;;;;27.33;17.13;;;;;;;15.96;100.00;102271.72;3604778;39;20036;-62
2021/07/22 03:49:09;;;;;;;26.40;17.27;;;;;;;15.96;100.00;102271.72;3605873;39;20024;-61
2021/07/22 03:51:35;;;;;;;28.00;18.00;;;;;;;15.88;100.00;102272.41;3601868;39;20409;-61
2021/07/22 03:54:02;;;;;;;28.48;17.08;;;;;;;15.86;100.00;102271.72;3599722;39;20340;-60
2021/07/22 03:56:29;;;;;;;26.50;18.00;;;;;;;15.84;100.00;102279.13;3605008;39;20305;-61
2021/07/22 03:58:56;;;;;;;27.90;18.15;;;;;;;15.91;100.00;102277.56;3605897;39;20063;-60
2021/07/22 04:01:22;;;;;;;26.83;17.60;;;;;;;15.93;100.00;102278.31;3603287;39;20402;-61
2021/07/22 04:03:49;;;;;;;30.50;18.88;;;;;;;15.97;100.00;102279.75;3601285;39;20405;-60
2021/07/22 04:06:15;;;;;;;24.38;17.02;;;;;;;15.95;100.00;102276.31;3605065;39;20036;-60
2021/07/22 04:08:42;;;;;;;26.00;17.60;;;;;;;16.01;100.00;102273.03;3602775;39;20030;-60
2021/07/22 04:11:08;;;;;;;30.85;18.48;;;;;;;15.99;100.00;102272.34;3604845;39;20119;-61
2021/07/22 04:13:36;;;;;;;25.88;17.38;;;;;;;16.02;100.00;102274.78;3603076;39;20108;-60
2021/07/22 04:16:03;;;;;;;28.20;18.10;;;;;;;16.02;100.00;102279.31;3603680;39;20026;-62
2021/07/22 04:18:30;;;;;;;30.30;18.50;;;;;;;16.07;100.00;102279.78;3602180;39;20039;-60
2021/07/22 04:23:29;;;;;;;28.75;17.52;;;;;;;16.20;100.00;102274.97;3635544;22;20056;-60
2021/07/22 04:25:55;;;;;;;26.40;17.33;;;;;;;16.33;100.00;102277.44;3603639;39;20267;-62
2021/07/22 04:28:21;;;;;;;29.27;17.85;;;;;;;16.44;100.00;102271.91;3606298;39;20071;-60
2021/07/22 04:30:49;;;;;;;23.88;16.00;;;;;;;16.50;100.00;102277.75;3604206;39;20042;-60
2021/07/22 04:33:16;;;;;;;24.13;17.42;;;;;;;16.53;100.00;102278.31;3603435;39;20974;-61
2021/07/22 04:35:42;;;;;;;27.25;15.88;;;;;;;16.61;100.00;102275.75;3603568;39;20028;-60
2021/07/22 04:38:08;;;;;;;24.63;17.20;;;;;;;16.62;100.00;102284.78;3605498;39;20028;-60
2021/07/22 04:40:35;;;;;;;24.98;16.65;;;;;;;16.68;100.00;102278.78;3603146;39;20366;-60
2021/07/22 04:43:01;;;;;;;27.02;15.57;;;;;;;16.72;100.00;102276.63;3602769;39;20040;-61
2021/07/22 04:45:28;;;;;;;24.67;16.83;;;;;;;16.73;100.00;102276.50;3604444;39;20039;-60
2021/07/22 04:47:56;;;;;;;23.95;16.17;;;;;;;16.86;100.00;102280.78;3606067;39;20113;-60
2021/07/22 04:50:23;;;;;;;26.25;14.65;;;;;;;16.92;100.00;102288.41;3599058;39;20389;-60
2021/07/22 04:52:49;;;;;;;26.80;16.70;;;;;;;16.88;100.00;102278.81;3603030;39;20068;-60
2021/07/22 04:55:16;;;;;;;26.20;15.85;;;;;;;16.92;100.00;102280.25;3605315;39;20038;-60
2021/07/22 04:57:42;;;;;;;22.65;14.13;;;;;;;16.93;100.00;102282.84;3601588;39;20115;-62
2021/07/22 05:00:09;;;;;;;26.25;15.63;;;;;;;17.01;100.00;102279.41;3602768;39;20048;-61
2021/07/22 05:02:36;;;;;;;23.25;14.95;;;;;;;16.99;100.00;102286.84;3603905;39;20040;-60
2021/07/22 05:05:04;;;;;;;21.42;14.85;;;;;;;16.98;100.00;102287.84;3602101;39;20032;-61
2021/07/22 05:09:58;;;;;;;24.08;15.27;;;;;;;16.94;100.00;102284.53;3624611;22;20054;-61
2021/07/22 05:12:24;;;;;;;24.65;15.68;;;;;;;16.98;100.00;102283.25;3593860;39;20280;-60
2021/07/22 05:14:50;;;;;;;20.80;13.48;;;;;;;17.09;100.00;102287.72;3593361;39;20048;-61
2021/07/22 05:17:17;;;;;;;24.73;14.68;;;;;;;17.11;100.00;102280.25;3595086;39;20038;-59
2021/07/22 05:19:43;;;;;;;27.52;14.75;;;;;;;17.11;100.00;102284.84;3595914;39;20040;-59
2021/07/22 05:22:11;;;;;;;21.15;13.50;;;;;;;17.25;100.00;102286.25;3593603;39;20038;-60
2021/07/22 05:24:37;;;;;;;20.90;13.93;;;;;;;17.39;100.00;102293.09;3595972;39;20356;-60
2021/07/22 05:27:04;;;;;;;20.88;14.20;;;;;;;17.38;100.00;102289.50;3595732;39;20040;-61
2021/07/22 05:29:31;;;;;;;20.98;14.05;;;;;;;17.46;100.00;102288.78;3596447;39;20044;-61
2021/07/22 05:31:57;;;;;;;23.77;14.10;;;;;;;17.48;100.00;102289.50;3595199;39;20060;-60
2021/07/22 05:36:52;;;;;;;22.90;14.02;;;;;;;17.61;100.00;102297.38;3618774;22;20032;-60
2021/07/22 05:39:19;;;;;;;19.77;14.15;;;;;;;17.69;100.00;102297.47;3604512;39;20036;-59
2021/07/22 05:41:46;;;;;;;23.58;15.13;;;;;;;17.70;100.00;102291.03;3605080;39;20027;-61
2021/07/22 05:44:12;;;;;;;18.60;12.65;;;;;;;17.62;100.00;102296.34;3602434;39;20047;-58
2021/07/22 05:46:39;;;;;;;24.00;13.48;;;;;;;17.79;100.00;102297.44;3601574;39;20067;-59
2021/07/22 05:49:06;;;;;;;17.40;12.57;;;;;;;17.73;100.00;102292.59;3603317;39;20359;-60
2021/07/22 05:51:33;;;;;;;20.42;13.43;;;;;;;17.66;100.00;102300.50;3603904;39;20156;-60
2021/07/22 05:53:59;;;;;;;18.88;12.90;;;;;;;17.63;100.00;102298.06;3603268;39;20132;-59
2021/07/22 05:56:27;;;;;;;20.90;12.85;;;;;;;17.71;100.00;102291.88;3600941;39;20047;-59
2021/07/22 05:58:54;;;;;;;17.27;12.00;;;;;;;17.86;100.00;102288.53;3604058;39;20482;-60
2021/07/22 06:01:21;;;;;;;16.83;11.73;;;;;;;17.82;100.00;102294.44;3602229;39;20043;-59
2021/07/22 06:03:47;;;;;;;17.52;12.48;;;;;;;17.89;100.00;102291.94;3603362;39;20034;-59
2021/07/22 06:06:14;;;;;;;17.52;12.13;;;;;;;18.10;100.00;102287.16;3605293;39;20026;-59
2021/07/22 06:08:40;;;;;;;18.73;12.20;;;;;;;18.15;100.00;102282.13;3591042;39;20397;-60
2021/07/22 06:11:08;;;;;;;19.08;11.82;;;;;;;18.21;100.00;102292.41;3596596;39;20055;-59
2021/07/22 06:13:36;;;;;;;16.55;11.23;;;;;;;18.12;100.00;102287.84;3596467;39;20468;-59
2021/07/22 06:16:02;;;;;;;18.10;11.75;;;;;;;18.35;100.00;102285.59;3597107;39;20395;-58
2021/07/22 06:18:29;;;;;;;20.42;11.23;;;;;;;18.44;100.00;102289.25;3603913;39;20028;-59
2021/07/22 06:20:56;;;;;;;19.00;11.93;;;;;;;18.56;100.00;102290.78;3603310;39;20039;-59
2021/07/22 06:23:22;;;;;;;15.50;10.18;;;;;;;18.82;100.00;102290.00;3600344;39;20096;-60
2021/07/22 06:25:49;;;;;;;15.13;10.40;;;;;;;18.98;100.00;102285.75;3600414;39;20046;-59
2021/07/22 06:28:15;;;;;;;14.98;10.90;;;;;;;19.12;100.00;102292.53;3605676;39;20032;-60
2021/07/22 06:30:43;;;;;;;18.48;11.38;;;;;;;19.06;100.00;102289.38;3603580;39;20081;-59
2021/07/22 06:33:09;;;;;;;18.60;10.88;;;;;;;19.33;100.00;102284.84;3605368;39;20036;-59
2021/07/22 06:35:36;;;;;;;18.90;10.82;;;;;;;19.31;100.00;102295.06;3604591;39;20035;-60
2021/07/22 06:38:02;;;;;;;13.95;10.57;;;;;;;19.33;100.00;102287.59;3601375;39;20390;-60
2021/07/22 06:40:29;;;;;;;15.27;10.77;;;;;;;19.57;100.00;102292.34;3599393;39;20366;-60
2021/07/22 06:42:55;;;;;;;13.50;10.05;;;;;;;19.77;100.00;102289.38;3605398;39;20294;-60
2021/07/22 06:45:21;;;;;;;16.00;11.13;;;;;;;19.45;100.00;102296.38;3605378;39;20400;-61
2021/07/22 06:47:49;;;;;;;16.17;10.90;;;;;;;19.12;100.00;102292.53;3605508;39;20116;-62
2021/07/22 06:50:16;;;;;;;18.00;11.30;;;;;;;18.87;100.00;102295.91;3601832;39;20378;-63
2021/07/22 06:52:43;;;;;;;14.77;10.68;;;;;;;18.91;100.00;102291.81;3604199;39;20117;-58
2021/07/22 06:55:09;;;;;;;14.88;9.27;;;;;;;19.05;100.00;102295.00;3600452;39;20039;-60
2021/07/22 06:57:36;;;;;;;14.15;10.55;;;;;;;18.97;100.00;102294.94;3602910;39;20043;-60
2021/07/22 07:00:05;;;;;;;13.98;9.80;;;;;;;18.95;100.00;102291.50;3603294;39;20040;-60
2021/07/22 07:02:31;;;;;;;14.32;10.00;;;;;;;19.04;100.00;102290.59;3601293;39;20292;-61
2021/07/22 07:04:59;;;;;;;12.38;9.05;;;;;;;19.16;100.00;102294.78;3598140;39;20091;-61
2021/07/22 07:07:26;;;;;;;14.57;9.20;;;;;;;19.17;100.00;102291.03;3600426;39;20028;-64
2021/07/22 07:09:53;;;;;;;17.00;8.45;;;;;;;19.32;100.00;102291.31;3602948;39;20039;-62
2021/07/22 07:12:19;;;;;;;12.40;8.18;;;;;;;18.94;100.00;102296.13;3601924;39;20048;-61
2021/07/22 07:14:45;;;;;;;12.95;8.52;;;;;;;18.86;100.00;102294.19;3603048;39;20040;-61
2021/07/22 07:17:12;;;;;;;10.95;7.20;;;;;;;18.97;100.00;102294.94;3602504;39;20032;-61
2021/07/22 07:19:38;;;;;;;12.60;7.40;;;;;;;18.99;100.00;102295.63;3602454;39;20038;-61
2021/07/22 07:22:06;;;;;;;11.30;7.22;;;;;;;19.30;100.00;102290.63;3600433;39;20305;-61
2021/07/22 07:24:32;;;;;;;9.65;7.38;;;;;;;19.40;100.00;102294.13;3600349;39;20039;-61
2021/07/22 07:26:59;;;;;;;13.05;7.72;;;;;;;19.30;100.00;102298.81;3604329;39;20032;-61
2021/07/22 07:29:26;;;;;;;11.95;7.85;;;;;;;19.93;100.00;102289.53;3601582;39;20048;-61
2021/07/22 07:31:52;;;;;;;13.63;7.32;;;;;;;20.05;100.00;102290.09;3601251;39;20036;-61
2021/07/22 07:34:19;;;;;;;11.80;7.47;;;;;;;19.99;100.00;102296.19;3603938;39;20140;-61
2021/07/22 07:36:45;;;;;;;14.98;7.28;;;;;;;19.74;100.00;102306.97;3601093;39;20103;-61
2021/07/22 07:39:15;;;;;;;11.40;7.15;;;;;;;19.44;100.00;102302.84;3604121;39;20340;-60
2021/07/22 07:41:42;;;;;;;10.15;6.80;;;;;;;19.49;100.00;102300.47;3603165;39;20062;-60
2021/07/22 07:44:09;;;;;;;9.25;6.93;;;;;;;19.40;100.00;102301.44;3601369;39;20039;-60
2021/07/22 07:46:35;;;;;;;11.35;6.63;;;;;;;19.38;100.00;102303.47;3593196;39;20050;-60
2021/07/22 07:49:02;;;;;;;8.13;6.47;;;;;;;19.84;100.00;102304.16;3597750;39;20034;-60
2021/07/22 07:51:28;;;;;;;9.05;5.72;;;;;;;20.04;100.00;102310.25;3602330;39;20043;-61
2021/07/22 07:53:55;;;;;;;7.28;6.00;;;;;;;19.54;100.00;102308.22;3601379;39;20034;-60
2021/07/22 07:58:51;;;;;;;7.63;5.60;;;;;;;20.39;100.00;102299.25;3590336;22;20035;-60
2021/07/22 08:01:58;;;;;;;9.95;5.88;;;;;;;20.54;100.00;102294.00;3606117;22;20061;-60
2021/07/22 08:04:25;;;;;;;10.80;6.33;;;;;;;20.16;100.00;102302.59;3555203;40;20060;-60
2021/07/22 08:06:52;;;;;;;8.25;5.68;;;;;;;20.75;100.00;102299.91;3555554;40;20415;-60
2021/07/22 08:09:18;;;;;;;7.68;5.63;;;;;;;21.09;100.00;102300.78;3558183;40;20062;-61
2021/07/22 08:11:45;;;;;;;7.20;5.75;;;;;;;21.07;100.00;102302.81;3557764;40;20032;-61
2021/07/22 08:14:13;;;;;;;6.68;5.75;;;;;;;21.05;100.00;102300.25;3555506;40;20297;-60
2021/07/22 08:16:42;;;;;;;7.82;5.55;;;;;;;21.49;100.00;102293.56;3558673;40;20042;-61
2021/07/22 08:19:09;;;;;;;;;;;;;;;21.12;100.00;102294.97;3558850;40;20366;-61
2021/07/22 08:21:35;;;;;;;7.47;5.28;;;;;;;20.91;100.00;102295.47;3558624;40;19936;-60
2021/07/22 08:24:01;;;;;;;7.80;4.85;;;;;;;21.05;100.00;102302.16;3555884;40;20401;-61
2021/07/22 08:26:28;;;;;;;9.32;5.60;;;;;;;20.63;100.00;102293.84;3557527;40;20053;-61
2021/07/22 08:28:54;;;;;;;7.88;5.47;;;;;;;20.39;100.00;102297.41;3557338;40;20382;-61
2021/07/22 08:31:22;;;;;;;7.38;5.43;;;;;;;20.55;100.00;102301.19;3554943;40;20309;-62
2021/07/22 08:33:50;;;;;;;11.73;5.88;;;;;;;20.33;100.00;102297.19;3557649;40;20040;-61
2021/07/22 08:36:16;;;;;;;8.77;5.43;;;;;;;20.94;100.00;102304.19;3557096;40;20048;-61
2021/07/22 08:38:43;;;;;;;7.90;5.28;;;;;;;21.49;100.00;102299.03;3557780;40;20047;-59
2021/07/22 08:41:13;;;;;;;7.70;4.63;;;;;;;21.69;100.00;102300.41;3559141;40;20098;-59
2021/07/22 08:43:40;;;;;;;9.00;5.43;;;;;;;21.47;100.00;102306.59;3553216;40;20036;-60
2021/07/22 08:46:06;;;;;;;8.00;5.20;;;;;;;21.02;100.00;102302.50;3559597;40;20386;-60
2021/07/22 08:48:35;;;;;;;10.00;5.18;;;;;;;20.89;100.00;102306.59;3556954;40;20046;-60
2021/07/22 08:51:03;;;;;;;;;;;;;;;20.55;100.00;102299.28;3560127;40;20382;-61
2021/07/22 08:53:29;;;;;;;7.68;5.35;;;;;;;20.43;100.00;102306.13;3556942;40;19949;-61
2021/07/22 08:55:58;;;;;;;10.30;5.63;;;;;;;20.94;100.00;102306.09;3557393;40;20042;-60
2021/07/22 08:58:27;;;;;;;10.23;5.40;;;;;;;21.00;100.00;102306.25;3557534;40;20046;-60
2021/07/22 09:00:56;;;;;;;9.63;5.15;;;;;;;20.96;100.00;102304.88;3555567;40;20042;-59
2021/07/22 09:03:23;;;;;;;7.30;4.93;;;;;;;21.09;100.00;102298.91;3561242;40;20034;-60
2021/07/22 09:05:50;;;;;;;8.30;5.10;;;;;;;21.02;100.00;102307.97;3557521;40;20043;-60
2021/07/22 09:08:17;;;;;;;7.40;5.15;;;;;;;21.22;100.00;102292.91;3557409;40;20032;-61
2021/07/22 09:10:43;;;;;;;9.48;5.07;;;;;;;21.46;100.00;102299.41;3557298;40;20050;-61
2021/07/22 09:13:24;;;;;;;10.65;5.28;;;;;;;21.86;100.00;102290.28;3556294;40;20032;-59
2021/07/22 09:15:52;;;;;;;10.52;5.53;;;;;;;21.69;100.00;102289.44;3554706;40;20038;-60
2021/07/22 09:18:23;;;;;;;9.73;5.15;;;;;;;21.57;100.00;102293.59;3554399;40;20313;-61
2021/07/22 09:20:52;;;;;;;14.02;5.25;;;;;;;21.29;100.00;102288.47;3556509;40;20373;-61
2021/07/22 09:23:19;;;;;;;11.10;5.47;;;;;;;21.42;100.00;102289.81;3554769;40;20042;-60
2021/07/22 09:25:47;;;;;;;10.10;5.68;;;;;;;21.29;100.00;102291.19;3557563;40;20046;-61
2021/07/22 09:28:15;;;;;;;8.45;4.80;;;;;;;21.13;100.00;102296.69;3555852;40;20036;-61
2021/07/22 09:30:54;;;;;;;8.88;4.60;;;;;;;20.77;100.00;102300.59;3559514;40;20062;-61
2021/07/22 09:33:33;;;;;;;6.28;4.38;;;;;;;21.40;100.00;102300.09;3553512;40;20419;-60
2021/07/22 09:36:00;;;;;;;11.13;5.55;;;;;;;21.99;100.00;102297.06;3555819;40;20124;-61
2021/07/22 09:38:28;;;;;;;6.30;4.35;;;;;;;22.27;100.00;102302.09;3554728;40;20383;-61
2021/07/22 09:40:55;;;;;;;6.65;5.03;;;;;;;22.12;100.00;102300.09;3557368;40;20045;-61
2021/07/22 09:43:36;;;;;;;7.97;5.60;;;;;;;21.83;100.00;102301.59;3557475;40;20053;-61
2021/07/22 09:46:02;;;;;;;9.13;5.93;;;;;;;21.80;100.00;102301.91;3558832;40;20048;-62
2021/07/22 09:48:29;;;;;;;8.32;5.25;;;;;;;22.08;100.00;102309.72;3555737;40;20026;-61
2021/07/22 09:50:55;;;;;;;9.00;5.45;;;;;;;21.80;100.00;102306.56;3558975;40;20045;-61
2021/07/22 09:53:25;;;;;;;14.93;5.22;;;;;;;21.07;100.00;102311.91;3556384;40;20428;-61
2021/07/22 09:55:54;;;;;;;9.07;5.78;;;;;;;21.34;100.00;102307.97;3556631;40;20388;-61
2021/07/22 10:01:13;;;;;;;6.55;4.80;;;;;;;21.42;100.00;102303.50;3595649;22;20032;-61
2021/07/22 10:03:39;;;;;;;5.43;4.20;;;;;;;21.24;100.00;102301.81;3602359;39;20305;-60
2021/07/22 10:06:08;;;;;;;6.22;4.63;;;;;;;21.24;100.00;102303.69;3599709;39;20293;-61
2021/07/22 10:08:36;;;;;;;6.50;5.10;;;;;;;21.42;100.00;102298.03;3596141;39;20227;-61
2021/07/22 10:11:05;;;;;;;6.95;4.75;;;;;;;21.86;100.00;102300.38;3603448;39;20028;-61
2021/07/22 10:13:33;;;;;;;;;;;;;;;22.58;100.00;102285.66;3602445;39;20352;-62
2021/07/22 10:16:01;;;;;;;7.18;4.60;;;;;;;23.04;100.00;102288.44;3598960;39;19938;-61
2021/07/22 10:18:32;;;;;;;8.67;4.70;;;;;;;22.04;100.00;102302.91;3599515;39;20056;-61
2021/07/22 10:20:59;;;;;;;6.57;4.63;;;;;;;22.13;100.00;102295.47;3600761;39;20507;-62
2021/07/22 10:23:26;;;;;;;8.05;5.13;;;;;;;22.03;100.00;102299.28;3604492;39;20041;-61
2021/07/22 10:25:55;;;;;;;5.95;4.72;;;;;;;22.10;100.00;102309.53;3602989;39;20072;-62
2021/07/22 10:28:22;;;;;;;10.73;5.47;;;;;;;21.68;100.00;102304.16;3598100;39;20043;-62
2021/07/22 10:30:49;;;;;;;8.07;4.95;;;;;;;21.22;100.00;102287.44;3602714;39;20036;-60
2021/07/22 10:33:19;;;;;;;8.13;4.72;;;;;;;21.67;100.00;102286.03;3600152;39;20356;-61
2021/07/22 10:35:46;;;;;;;9.98;5.50;;;;;;;22.34;100.00;102295.75;3602678;39;20302;-61
2021/07/22 10:38:14;;;;;;;6.50;4.72;;;;;;;22.74;100.00;102288.28;3601499;39;20034;-61
2021/07/22 10:40:46;;;;;;;6.82;5.25;;;;;;;22.82;100.00;102289.28;3601866;39;20032;-62
2021/07/22 10:43:39;;;;;;;7.95;4.88;;;;;;;22.56;100.00;102287.75;3605522;39;20057;-61
2021/07/22 10:46:07;;;;;;;7.75;4.70;;;;;;;23.13;100.00;102285.63;3590373;39;20033;-61
2021/07/22 10:48:33;;;;;;;9.52;5.55;;;;;;;22.83;100.00;102285.50;3600381;39;20060;-61
2021/07/22 10:51:04;;;;;;;9.15;4.82;;;;;;;22.46;100.00;102277.00;3598549;39;20024;-61
2021/07/22 10:55:58;;;;;;;8.45;4.80;;;;;;;22.59;100.00;102278.31;3614890;22;20049;-61
2021/07/22 10:58:48;;;;;;;5.97;4.53;;;;;;;22.32;100.00;102280.50;3576124;40;20061;-60
2021/07/22 11:02:00;;;;;;;9.48;5.50;;;;;;;22.71;100.00;102269.44;3567508;40;20118;-60
2021/07/22 11:04:46;;;;;;;9.35;5.40;;;;;;;23.30;100.00;102270.72;3569779;40;20060;-62
2021/07/22 11:07:31;;;;;;;9.50;4.78;;;;;;;24.38;100.00;102262.94;3573131;40;20030;-61
2021/07/22 11:09:59;;;;;;;6.20;4.55;;;;;;;24.58;100.00;102262.31;3570548;40;20033;-62
2021/07/22 11:12:46;;;;;;;6.55;4.60;;;;;;;23.86;100.00;102261.22;3569992;40;20045;-61
2021/07/22 11:15:39;;;;;;;8.10;5.05;;;;;;;23.75;100.00;102273.53;3574119;40;20032;-62
2021/07/22 11:18:38;;;;;;;6.70;4.88;;;;;;;24.24;100.00;102263.81;3555285;40;20044;-62
2021/07/22 11:21:05;;;;;;;6.43;5.38;;;;;;;24.70;94.74;102257.16;3574064;40;20370;-61
2021/07/22 11:23:32;;;;;;;10.35;4.68;;;;;;;24.97;100.00;102253.63;3574827;40;20113;-63
2021/07/22 11:25:59;;;;;;;7.45;4.72;;;;;;;24.76;100.00;102254.47;3570122;40;20049;-61